Southern Ontario METAR Reports

CYSN - St.Catharines
Updated: 07/16/2019 7:00pm
Mostly cloudy
Mostly cloudy
 Wind from SW
Wind: SW 24 km/h
Temperature: 27°C
Heat Index: 29°C
Dew Point: 20°C
Humidity: 66%
Barometer: 1012.9 hPa
Clouds: Mostly cloudy
Visibility: 24 km
Cloud details: Mostly cloudy 5182 m
2019/07/16 23:00 CYSN 162300Z 23013KT 15SM BKN170 27/20 A2991 RMK AC6 SLP128 DENSITY ALT 1800FT
CYHM - Hamilton
Updated: 07/16/2019 7:00pm
Overcast
Overcast
 Wind from SW
Wind: SW 15 km/h
Temperature: 25°C
Dew Point: 21°C
Humidity: 79%
Barometer: 1013.9 hPa
Clouds: Overcast
Visibility: 24 km
Cloud details: Few Clouds 1707 m
Partly cloudy 2438 m
Overcast 4267 m
2019/07/16 23:00 CYHM 162300Z 22008KT 15SM FEW056 SCT080 OVC140 25/21 A2994 RMK SC2AC2AC4 SLP137 DENSITY ALT 2100FT
 
CYYZ - Toronto
Updated: 07/16/2019 7:00pm
Mostly cloudy
Mostly cloudy
 Wind from WSW
Wind: WSW 17 km/h, Gust: 31 km/h
Temperature: 26°C
Dew Point: 20°C
Humidity: 70%
Barometer: 1012.5 hPa
Clouds: Mostly cloudy
Visibility: 24 km
Cloud details: Few Clouds 914 m
Partly cloudy 1981 m
Mostly cloudy 2286 m
Mostly cloudy 6096 m
2019/07/16 23:00 CYYZ 162300Z 24009G17KT 210V270 15SM FEW030 SCT065 BKN075 BKN200 26/20 A2990 RMK CU1SC3AC2CI1 CU TR SLP124 DENSITY ALT 2100FT
CYKF - Waterloo
Updated: 07/16/2019 7:00pm
Mostly cloudy
Mostly cloudy
 Wind from SW
Wind: SW 20 km/h, Gust: 35 km/h
Temperature: 25°C
Dew Point: 21°C
Humidity: 79%
Barometer: 1013.5 hPa
Clouds: Mostly cloudy
Visibility: 14 km
Cloud details: Mostly cloudy 3048 m
Mostly cloudy 3962 m
Mostly cloudy 4877 m
2019/07/16 23:00 CYKF 162300Z AUTO 23011G19KT 9SM BKN100 BKN130 BKN160 25/21 A2993 RMK SLP134 DENSITY ALT 2400FT
 
CYXU - London
Updated: 07/16/2019 7:00pm
Mostly cloudy
Mostly cloudy
 Wind from SSW
Wind: SSW 13 km/h
Temperature: 25°C
Dew Point: 23°C
Humidity: 89%
Barometer: 1013.9 hPa
Clouds: Mostly cloudy
Visibility: 24 km
Cloud details: Few Clouds 914 m
Partly cloudy 1676 m
Mostly cloudy 3353 m
2019/07/16 23:00 CYXU 162300Z 20007KT 15SM FEW030 SCT055 BKN110 25/23 A2994 RMK SC1SC3AC4 SC TR SLP136 DENSITY ALT 2300FT
CYQG - Windsor
Updated: 07/16/2019 7:00pm
Overcast
Overcast
 Wind from SSE
Wind: SSE 15 km/h
Temperature: 26°C
Dew Point: 23°C
Humidity: 84%
Barometer: 1013.2 hPa
Clouds: Overcast
Visibility: 14 km
Cloud details: Partly cloudy 3353 m
Mostly cloudy 5486 m
Overcast 6401 m
2019/07/16 23:00 CYQG 162300Z AUTO 16008KT 9SM SCT110 BKN180 OVC210 26/23 A2992 RMK LTNG DIST W NW SLP129 DENSITY ALT 2000FT
 
CYZR - Sarnia
Updated: 07/16/2019 7:00pm
Overcast
Overcast
 Wind from S
Wind: S 9 km/h
Temperature: 26°C
Dew Point: 23°C
Humidity: 84%
Barometer: 1012.5 hPa
Clouds: Overcast
Visibility: 14 km
Cloud details: Mostly cloudy 3962 m
Overcast 4572 m
2019/07/16 23:00 CYZR 162300Z AUTO 19005KT 9SM BKN130 OVC150 26/23 A2990 RMK LTNG DIST SW SLP125 DENSITY ALT 2000FT
CYVV - Wiarton
Updated: 07/16/2019 7:00pm
Few Clouds
Few Clouds
 Wind from SW
Wind: SW 26 km/h
Temperature: 26°C
Dew Point: 21°C
Humidity: 74%
Barometer: 1011.2 hPa
Clouds: Few Clouds
Visibility: 24 km
Cloud details: Few Clouds 610 m
Few Clouds 7620 m
2019/07/16 23:00 CYVV 162300Z 23014KT 15SM FEW020 FEW250 26/21 A2986 RMK CU1CI1 WND ESTD SLP111 DENSITY ALT 2300FT
 
CYPQ - Peterborough
Updated: 07/16/2019 7:00pm
Mostly cloudy
Mostly cloudy
 Wind from S
Wind: S 11 km/h
Temperature: 27°C
Heat Index: 29°C
Dew Point: 22°C
Humidity: 74%
Barometer: 1011.9 hPa
Clouds: Mostly cloudy
Visibility: 14 km
Cloud details: Few Clouds 3658 m
Mostly cloudy 4267 m
2019/07/16 23:00 CYPQ 162300Z AUTO 19006KT 9SM FEW120 BKN140 27/22 A2988 RMK SLP117 DENSITY ALT 2100FT
CYTR - Trenton
Updated: 07/16/2019 7:00pm
Mostly cloudy
Mostly cloudy
 Wind from WSW
Wind: WSW 20 km/h, Gust: 35 km/h
Temperature: 27°C
Heat Index: 29°C
Dew Point: 20°C
Humidity: 66%
Barometer: 1012.2 hPa
Clouds: Mostly cloudy
Visibility: 24 km
Cloud details: Few Clouds 1524 m
Partly cloudy 2438 m
Mostly cloudy 7620 m
2019/07/16 23:00 CYTR 162300Z 25011G19KT 15SM FEW050 SCT080 BKN250 27/20 A2989 RMK SC1AC2CI2 SLP121